Time;durP1;ratioP1;P1;durP2;ratioP2;P2;SDS_P1;SDS_P2;PMS_P1;PMS_P2;Temp;Humidity;BMP_temperature;BMP_pressure;BME280_temperature;BME280_humidity;BME280_pressure;Samples;Min_cycle;Max_cycle;Signal;HPM_P1;HPM_P2
2021/03/03 00:02:03;;;;;;;23.97;17.07;;;;;;;-144.99;92.00;52276.88;5012284;28;20636;-76
2021/03/03 00:04:29;;;;;;;22.10;16.00;;;;;;;-144.99;92.00;52309.50;5012572;28;20727;-77
2021/03/03 00:06:55;;;;;;;24.30;17.07;;;;;;;-144.99;92.31;52317.66;5011848;28;20350;-78
2021/03/03 00:09:22;;;;;;;30.63;20.00;;;;;;;-144.99;93.00;52329.88;5012924;28;20629;-78
2021/03/03 00:11:49;;;;;;;28.53;16.43;;;;;;;-144.99;92.89;52266.69;5012991;28;20646;-77
2021/03/03 00:14:15;;;;;;;26.67;19.57;;;;;;;-144.99;92.93;52321.72;5012736;28;20629;-76
2021/03/03 00:16:41;;;;;;;27.53;18.17;;;;;;;-144.99;93.09;52309.50;5012340;28;20972;-75
2021/03/03 00:19:07;;;;;;;20.73;14.43;;;;;;;-144.99;93.19;52333.94;5012114;28;20625;-77
2021/03/03 00:21:33;;;;;;;22.73;15.00;;;;;;;-144.99;93.29;52309.50;5011804;28;20661;-75
2021/03/03 00:24:01;;;;;;;25.47;16.17;;;;;;;-144.99;93.68;52329.88;5012156;28;20649;-72
2021/03/03 00:26:28;;;;;;;22.97;16.37;;;;;;;-144.99;93.67;52301.34;5012094;28;20644;-75
2021/03/03 00:28:55;;;;;;;22.30;16.23;;;;;;;-144.99;93.79;52285.03;5011905;28;20637;-75
2021/03/03 00:31:21;;;;;;;21.40;17.33;;;;;;;-144.99;94.00;52333.94;5011737;28;20641;-74
2021/03/03 00:33:47;;;;;;;21.87;14.90;;;;;;;-144.99;94.01;52232.03;5011543;28;21186;-75
2021/03/03 00:36:13;;;;;;;21.43;15.43;;;;;;;-144.99;94.74;52329.88;5011456;28;20629;-75
2021/03/03 00:38:39;;;;;;;19.23;13.40;;;;;;;-144.99;94.78;52301.34;5011971;28;20628;-75
2021/03/03 00:41:05;;;;;;;20.87;16.73;;;;;;;-144.99;94.86;52315.59;5011725;28;20572;-76
2021/03/03 00:43:31;;;;;;;21.33;15.13;;;;;;;-144.99;95.13;52297.25;5012056;28;20703;-77
2021/03/03 00:45:59;;;;;;;24.90;18.90;;;;;;;-144.99;95.37;52289.13;5011052;28;20630;-76
2021/03/03 00:48:25;;;;;;;27.23;19.23;;;;;;;-144.99;95.37;52293.19;5010092;28;20620;-76
2021/03/03 00:50:51;;;;;;;26.23;16.40;;;;;;;-144.99;95.60;52333.94;5010986;28;20640;-75
2021/03/03 00:53:17;;;;;;;29.37;19.40;;;;;;;-144.99;96.78;52348.22;5011324;28;20657;-76
2021/03/03 00:55:43;;;;;;;36.63;20.17;;;;;;;-144.99;96.64;52313.56;5011371;28;20733;-76
2021/03/03 00:58:09;;;;;;;47.83;23.90;;;;;;;-144.99;97.89;52301.34;5012477;28;20978;-76
2021/03/03 01:00:35;;;;;;;35.87;21.70;;;;;;;-144.99;98.43;52342.09;5010385;28;20652;-76
2021/03/03 01:03:03;;;;;;;38.33;23.10;;;;;;;-144.99;99.01;52366.56;5012242;28;20226;-76
2021/03/03 01:05:29;;;;;;;52.50;29.57;;;;;;;-144.99;99.33;52329.88;5010588;28;21072;-72
2021/03/03 01:07:55;;;;;;;47.13;25.60;;;;;;;-144.99;99.48;52336.00;5011430;28;21223;-76
2021/03/03 01:10:21;;;;;;;38.30;22.60;;;;;;;-144.99;99.44;52313.56;5011057;28;20221;-74
2021/03/03 01:12:47;;;;;;;28.40;19.97;;;;;;;-144.99;99.50;52317.66;5011918;28;20214;-76
2021/03/03 01:15:14;;;;;;;45.53;24.30;;;;;;;-144.99;99.77;52340.06;5010412;28;20665;-75
2021/03/03 01:17:40;;;;;;;41.27;24.53;;;;;;;-144.99;100.00;52317.66;5011106;28;20728;-74
2021/03/03 01:20:10;;;;;;;41.53;22.90;;;;;;;-144.99;100.00;52321.72;5009784;28;21274;-74
2021/03/03 01:22:36;;;;;;;29.87;21.53;;;;;;;-144.99;100.00;52370.63;5011931;28;20231;-74
2021/03/03 01:25:03;;;;;;;32.43;23.87;;;;;;;-144.99;100.00;52325.81;5011585;28;20644;-76
2021/03/03 01:27:29;;;;;;;47.13;22.93;;;;;;;-144.99;100.00;52344.16;5010930;28;20610;-75
2021/03/03 01:29:55;;;;;;;43.37;24.63;;;;;;;-144.99;100.00;52301.34;5010184;28;21214;-75
2021/03/03 01:32:21;;;;;;;46.03;26.73;;;;;;;-144.99;100.00;52280.97;5010518;28;20247;-76
2021/03/03 01:34:47;;;;;;;43.23;22.37;;;;;;;-144.99;100.00;52297.25;5010773;28;20235;-77
2021/03/03 01:37:14;;;;;;;36.77;24.00;;;;;;;-144.99;100.00;52346.19;5010039;28;20214;-74
2021/03/03 01:39:40;;;;;;;30.17;20.13;;;;;;;-144.99;100.00;52386.94;5010299;28;20621;-77
2021/03/03 01:42:06;;;;;;;26.00;19.70;;;;;;;-144.99;100.00;52321.72;5010595;28;21281;-76
2021/03/03 01:44:32;;;;;;;22.50;17.60;;;;;;;-144.99;100.00;52366.56;5010258;28;20654;-76
2021/03/03 01:46:58;;;;;;;35.90;23.47;;;;;;;-144.99;100.00;52329.88;5010027;28;20778;-75
2021/03/03 01:49:24;;;;;;;55.27;22.73;;;;;;;-144.99;100.00;52350.25;5010510;28;21213;-76
2021/03/03 01:51:50;;;;;;;36.53;23.40;;;;;;;-144.99;100.00;52317.66;5010099;28;20508;-77
2021/03/03 01:54:17;;;;;;;38.00;26.07;;;;;;;-144.99;100.00;52340.06;5010753;28;20272;-77
2021/03/03 01:56:43;;;;;;;38.90;22.90;;;;;;;-144.99;100.00;52338.03;5010210;28;20633;-77
2021/03/03 01:59:09;;;;;;;34.47;21.87;;;;;;;-144.99;100.00;52331.91;5008734;28;20632;-76
2021/03/03 02:01:35;;;;;;;36.27;20.07;;;;;;;-144.99;100.00;52305.41;5008662;28;20718;-76
2021/03/03 02:04:04;;;;;;;37.63;21.87;;;;;;;-144.99;100.00;52329.88;5004505;28;20693;-76
2021/03/03 02:06:38;;;;;;;28.27;18.53;;;;;;;-144.99;100.00;52370.63;5009450;28;20381;-75
2021/03/03 02:09:10;;;;;;;36.57;23.30;;;;;;;-144.99;100.00;52338.03;5010024;28;20810;-75
2021/03/03 02:11:47;;;;;;;31.20;21.20;;;;;;;-144.99;100.00;52344.16;5010076;28;20645;-77
2021/03/03 02:14:18;;;;;;;35.90;21.77;;;;;;;-144.99;100.00;52346.19;5010033;28;21206;-77
2021/03/03 02:16:46;;;;;;;30.60;23.07;;;;;;;-144.99;100.00;52333.94;5009780;28;21024;-79
2021/03/03 02:19:19;;;;;;;42.63;26.23;;;;;;;-144.99;100.00;52346.19;4997597;28;20614;-79
2021/03/03 02:21:51;;;;;;;42.67;23.93;;;;;;;-144.99;100.00;52325.81;5009760;28;20657;-79
2021/03/03 02:24:22;;;;;;;44.87;26.60;;;;;;;-144.99;100.00;52374.72;5010343;28;20662;-77
2021/03/03 02:26:51;;;;;;;35.27;21.03;;;;;;;-144.99;100.00;52293.19;5009543;28;20625;-75
2021/03/03 02:29:21;;;;;;;35.00;23.53;;;;;;;-144.99;100.00;52344.16;5009493;28;20629;-75
2021/03/03 02:31:51;;;;;;;34.67;23.20;;;;;;;-144.99;100.00;52346.19;5008870;28;20657;-76
2021/03/03 02:34:19;;;;;;;36.60;21.87;;;;;;;-144.99;100.00;52358.41;5009664;28;20637;-76
2021/03/03 02:36:48;;;;;;;32.37;22.77;;;;;;;-144.99;100.00;52338.03;5008418;28;21241;-76
2021/03/03 02:39:16;;;;;;;43.40;21.70;;;;;;;-144.99;100.00;52342.09;5009719;28;21200;-76
2021/03/03 02:41:43;;;;;;;37.27;24.80;;;;;;;-144.99;100.00;52356.38;5009502;28;20661;-75
2021/03/03 02:44:12;;;;;;;36.57;25.40;;;;;;;-144.99;100.00;52344.16;5009636;28;20693;-75
2021/03/03 02:46:42;;;;;;;29.63;21.27;;;;;;;-144.99;100.00;52350.25;5008330;28;20629;-76
2021/03/03 02:49:08;;;;;;;41.63;25.30;;;;;;;-144.99;100.00;52325.81;5008478;28;20606;-75
2021/03/03 02:51:34;;;;;;;41.60;23.30;;;;;;;-144.99;100.00;52350.25;5008535;28;20864;-76
2021/03/03 02:54:00;;;;;;;48.27;25.70;;;;;;;-144.99;100.00;52374.72;5009644;28;20833;-75
2021/03/03 02:56:27;;;;;;;33.13;20.57;;;;;;;-144.99;100.00;52338.03;5010254;28;20253;-75
2021/03/03 02:58:54;;;;;;;38.50;25.17;;;;;;;-144.99;100.00;52340.06;5009929;28;20206;-74
2021/03/03 03:01:22;;;;;;;47.60;24.10;;;;;;;-144.99;100.00;52309.50;5008785;28;20658;-74
2021/03/03 03:03:52;;;;;;;32.87;23.37;;;;;;;-144.99;100.00;52325.81;5009118;28;20660;-73
2021/03/03 03:06:22;;;;;;;39.97;22.40;;;;;;;-144.99;100.00;52360.44;5009010;28;20621;-74
2021/03/03 03:08:50;;;;;;;45.43;27.07;;;;;;;-144.99;100.00;52295.22;5009902;28;20618;-74
2021/03/03 03:11:20;;;;;;;39.20;22.30;;;;;;;-144.99;100.00;52346.19;5008998;28;20656;-74
2021/03/03 03:13:48;;;;;;;28.87;19.43;;;;;;;-144.99;100.00;52382.88;5010017;28;20625;-74
2021/03/03 03:16:15;;;;;;;35.00;20.93;;;;;;;-144.99;100.00;52333.94;5008499;28;21297;-75
2021/03/03 03:18:45;;;;;;;39.70;21.70;;;;;;;-144.99;100.00;52333.94;5009968;28;21950;-76
2021/03/03 03:21:12;;;;;;;38.90;19.97;;;;;;;-144.99;100.00;52350.25;5008559;28;20707;-75
2021/03/03 03:23:40;;;;;;;31.73;18.80;;;;;;;-144.99;100.00;52329.88;5009074;28;20664;-75
2021/03/03 03:26:07;;;;;;;47.60;26.57;;;;;;;-144.99;100.00;52358.41;5008409;28;20624;-73
2021/03/03 03:28:37;;;;;;;39.90;22.23;;;;;;;-144.99;100.00;52331.91;5009248;28;20636;-76
2021/03/03 03:31:03;;;;;;;43.73;22.40;;;;;;;-144.99;100.00;52319.69;5008851;28;20722;-75
2021/03/03 03:33:30;;;;;;;33.63;18.90;;;;;;;-144.99;100.00;52378.78;5010391;28;20622;-76
2021/03/03 03:35:58;;;;;;;35.20;23.03;;;;;;;-144.99;100.00;52325.81;5007941;28;20637;-75
2021/03/03 03:38:26;;;;;;;39.50;22.50;;;;;;;-144.99;100.00;52358.41;5008256;28;20992;-75
2021/03/03 03:40:52;;;;;;;33.70;21.10;;;;;;;-144.99;100.00;52340.06;5010034;28;20638;-75
2021/03/03 03:43:19;;;;;;;27.53;19.90;;;;;;;-144.99;100.00;52354.34;5008473;28;20733;-74
2021/03/03 03:45:49;;;;;;;23.13;18.37;;;;;;;-144.99;100.00;52325.81;5008235;28;20349;-75
2021/03/03 03:48:16;;;;;;;26.13;19.57;;;;;;;-144.99;100.00;52358.41;5008969;28;20613;-74
2021/03/03 03:50:42;;;;;;;48.50;25.70;;;;;;;-144.99;100.00;52313.56;5007774;28;20613;-75
2021/03/03 03:53:09;;;;;;;37.97;23.37;;;;;;;-144.99;100.00;52386.94;5008106;28;20646;-73
2021/03/03 03:55:37;;;;;;;38.07;22.80;;;;;;;-144.99;100.00;52366.56;5007724;28;21032;-73
2021/03/03 03:58:04;;;;;;;26.50;19.50;;;;;;;-144.99;100.00;52321.72;5008581;28;21044;-73
2021/03/03 04:00:31;;;;;;;22.43;16.90;;;;;;;-144.99;100.00;52333.94;5007064;28;20621;-74
2021/03/03 04:02:57;;;;;;;31.33;20.30;;;;;;;-144.99;100.00;52382.88;5008426;28;20665;-73
2021/03/03 04:05:24;;;;;;;37.30;22.43;;;;;;;-144.99;100.00;52370.63;5007992;28;20633;-74
2021/03/03 04:07:51;;;;;;;29.07;18.90;;;;;;;-144.99;100.00;52358.41;5007539;28;20684;-74
2021/03/03 04:10:21;;;;;;;33.33;24.00;;;;;;;-144.99;100.00;52333.94;5007968;28;20640;-75
2021/03/03 04:12:47;;;;;;;35.37;23.87;;;;;;;-144.99;100.00;52321.72;5008749;28;20709;-75
2021/03/03 04:15:14;;;;;;;34.53;22.17;;;;;;;-144.99;100.00;52378.78;5008317;28;21222;-76
2021/03/03 04:17:40;;;;;;;24.13;19.17;;;;;;;-144.99;100.00;52336.00;5007919;28;20688;-75
2021/03/03 04:20:09;;;;;;;32.60;20.10;;;;;;;-144.99;100.00;52354.34;5007205;28;20660;-76
2021/03/03 04:22:35;;;;;;;33.40;24.53;;;;;;;-144.99;100.00;52374.72;5008370;28;20681;-77
2021/03/03 04:25:03;;;;;;;38.80;24.83;;;;;;;-144.99;100.00;52358.41;5011863;28;21219;-77
2021/03/03 04:27:30;;;;;;;36.53;21.70;;;;;;;-144.99;100.00;52348.22;5011920;28;20616;-76
2021/03/03 04:29:56;;;;;;;31.50;17.70;;;;;;;-144.99;100.00;52325.81;5011229;28;21212;-75
2021/03/03 04:32:22;;;;;;;23.90;18.07;;;;;;;-144.99;100.00;52333.94;5011147;28;20649;-77
2021/03/03 04:34:48;;;;;;;21.47;18.20;;;;;;;-144.99;100.00;52374.72;5011955;28;20652;-78
2021/03/03 04:37:15;;;;;;;30.70;17.17;;;;;;;-144.99;100.00;52313.56;5010791;28;20629;-77
2021/03/03 04:39:41;;;;;;;28.77;19.33;;;;;;;-144.99;100.00;52382.88;5012177;28;20621;-78
2021/03/03 04:42:07;;;;;;;30.40;19.53;;;;;;;-144.99;100.00;52366.56;5012149;28;20792;-79
2021/03/03 04:44:34;;;;;;;25.10;17.30;;;;;;;-144.99;100.00;52333.94;5012928;28;20227;-77
2021/03/03 04:47:00;;;;;;;21.40;15.77;;;;;;;-144.99;100.00;52342.09;5012048;28;20681;-78
2021/03/03 04:49:26;;;;;;;25.20;16.20;;;;;;;-144.99;100.00;52382.88;5011363;28;20620;-78
2021/03/03 04:51:52;;;;;;;25.37;17.63;;;;;;;-144.99;100.00;52350.25;5010312;28;20843;-78
2021/03/03 04:54:18;;;;;;;31.20;21.33;;;;;;;-144.99;100.00;52362.50;5016427;28;20621;-78
2021/03/03 04:56:44;;;;;;;27.60;18.53;;;;;;;-144.99;100.00;52366.56;5012479;28;20625;-78
2021/03/03 04:59:10;;;;;;;24.77;17.67;;;;;;;-144.99;100.00;52321.72;5011339;28;20625;-78
2021/03/03 05:01:37;;;;;;;27.77;19.53;;;;;;;-144.99;100.00;52374.72;5010089;28;20231;-76
2021/03/03 05:04:03;;;;;;;27.17;19.27;;;;;;;-144.99;100.00;52333.94;5010992;28;20662;-76
2021/03/03 05:06:29;;;;;;;26.97;19.50;;;;;;;-144.99;100.00;52354.34;5009032;28;20632;-74
2021/03/03 05:08:55;;;;;;;24.73;17.80;;;;;;;-144.99;100.00;52342.09;5010669;28;20629;-76
2021/03/03 05:11:22;;;;;;;29.20;21.20;;;;;;;-144.99;100.00;52358.41;5011320;28;20648;-76
2021/03/03 05:13:49;;;;;;;24.30;17.90;;;;;;;-144.99;100.00;52338.03;5034349;23;20728;-74
2021/03/03 05:16:15;;;;;;;30.03;20.77;;;;;;;-144.99;100.00;52366.56;5006193;28;20686;-73
2021/03/03 05:18:42;;;;;;;24.80;18.87;;;;;;;-144.99;100.00;52360.44;5011322;28;20629;-72
2021/03/03 05:21:07;;;;;;;33.90;18.13;;;;;;;-144.99;100.00;52366.56;5010250;28;20621;-71
2021/03/03 05:23:35;;;;;;;28.43;19.07;;;;;;;-144.99;100.00;52366.56;5011090;28;20767;-73
2021/03/03 05:26:03;;;;;;;28.23;19.83;;;;;;;-144.99;100.00;52333.94;5011511;28;20207;-72
2021/03/03 05:28:30;;;;;;;22.70;16.27;;;;;;;-144.99;100.00;52395.09;5003041;28;21204;-71
2021/03/03 05:30:56;;;;;;;29.80;20.53;;;;;;;-144.99;100.00;52380.84;4990674;28;21250;-72
2021/03/03 05:33:24;;;;;;;25.23;17.97;;;;;;;-144.99;100.00;52346.19;5008088;28;20622;-71
2021/03/03 05:35:52;;;;;;;27.03;17.93;;;;;;;-144.99;100.00;52366.56;4992007;28;21228;-70
2021/03/03 05:38:18;;;;;;;28.90;18.83;;;;;;;-144.99;100.00;52342.09;5008486;28;20756;-70
2021/03/03 05:40:45;;;;;;;25.77;19.57;;;;;;;-144.99;100.00;52374.72;5000161;28;20735;-70
2021/03/03 05:43:11;;;;;;;22.23;16.67;;;;;;;-144.99;100.00;52354.34;4991959;28;21042;-72
2021/03/03 05:45:38;;;;;;;27.27;19.00;;;;;;;-144.99;100.00;52297.25;4990542;28;20985;-72
2021/03/03 05:48:06;;;;;;;27.93;19.43;;;;;;;-144.99;100.00;52382.88;4991226;28;20685;-71
2021/03/03 05:50:33;;;;;;;28.63;18.70;;;;;;;-144.99;100.00;52350.25;4990277;28;20633;-73
2021/03/03 05:53:00;;;;;;;26.10;19.47;;;;;;;-144.99;100.00;52346.19;4991943;28;20693;-73
2021/03/03 05:55:27;;;;;;;27.80;20.13;;;;;;;-144.99;100.00;52350.25;4993728;28;20744;-74
2021/03/03 05:57:53;;;;;;;27.70;19.60;;;;;;;-144.99;100.00;52354.34;4991588;28;20641;-75
2021/03/03 06:00:20;;;;;;;27.67;19.20;;;;;;;-144.99;100.00;52333.94;4990810;28;20709;-73
2021/03/03 06:02:46;;;;;;;28.30;20.07;;;;;;;-144.99;100.00;52352.28;4991199;28;20654;-73
2021/03/03 06:05:13;;;;;;;23.70;18.83;;;;;;;-144.99;100.00;52352.28;4991283;28;20654;-74
2021/03/03 06:07:40;;;;;;;36.60;21.63;;;;;;;-144.99;100.00;52321.72;4991195;28;20613;-75
2021/03/03 06:10:10;;;;;;;36.23;20.80;;;;;;;-144.99;100.00;52370.63;4995059;28;20644;-78
2021/03/03 06:12:36;;;;;;;28.87;17.13;;;;;;;-144.99;100.00;52321.72;4303144;28;10000754;-82
2021/03/03 06:15:04;;;;;;;36.73;21.50;;;;;;;-144.99;100.00;52338.03;5008368;28;20247;-81
2021/03/03 06:17:30;;;;;;;32.80;18.77;;;;;;;-144.99;100.00;52378.78;5011694;28;21030;-80
2021/03/03 06:19:57;;;;;;;37.13;20.93;;;;;;;-144.99;100.00;52350.25;4999176;28;20662;-79
2021/03/03 06:22:25;;;;;;;43.50;19.60;;;;;;;-144.99;100.00;52360.44;4999867;28;21209;-80
2021/03/03 06:24:54;;;;;;;43.50;19.27;;;;;;;-144.99;100.00;52338.03;5015859;28;20688;-80
2021/03/03 06:27:23;;;;;;;33.07;20.40;;;;;;;-144.99;100.00;52362.50;5006561;28;20635;-81
2021/03/03 06:30:05;;;;;;;33.00;18.17;;;;;;;-144.99;100.00;52342.09;5008460;28;20610;-81
2021/03/03 06:32:50;;;;;;;32.03;20.47;;;;;;;-144.99;100.00;52397.13;5002166;28;20642;-80
2021/03/03 06:35:16;;;;;;;28.33;17.33;;;;;;;-144.99;100.00;52336.00;4992779;28;20653;-83
2021/03/03 06:37:53;;;;;;;40.63;18.73;;;;;;;-144.99;100.00;52370.63;5007153;28;20701;-81
2021/03/03 06:40:20;;;;;;;45.33;18.80;;;;;;;-144.99;100.00;52374.72;5019698;28;20617;-81
2021/03/03 06:42:47;;;;;;;33.33;19.13;;;;;;;-144.99;100.00;52354.34;4999940;28;20662;-81
2021/03/03 06:45:26;;;;;;;36.70;22.73;;;;;;;-144.99;100.00;52309.50;4996877;28;21130;-82
2021/03/03 06:47:53;;;;;;;30.17;18.77;;;;;;;-144.99;100.00;52319.69;5001371;28;20614;-81
2021/03/03 06:50:20;;;;;;;35.80;18.83;;;;;;;-144.99;100.00;52348.22;5002635;28;20627;-80
2021/03/03 06:52:46;;;;;;;33.83;19.53;;;;;;;-144.99;100.00;52333.94;4999043;28;20718;-83
2021/03/03 06:55:14;;;;;;;48.53;18.07;;;;;;;-144.99;100.00;52329.88;5002788;28;20646;-82
2021/03/03 06:57:40;;;;;;;34.83;19.97;;;;;;;-144.99;100.00;52325.81;4996579;28;20936;-81
2021/03/03 07:00:09;;;;;;;28.83;18.30;;;;;;;-144.99;100.00;52329.88;4993985;28;20623;-80
2021/03/03 07:02:37;;;;;;;26.17;18.57;;;;;;;-144.99;100.00;52378.78;4994488;28;20662;-79
2021/03/03 07:05:05;;;;;;;29.27;19.50;;;;;;;-144.99;100.00;52325.81;5005930;28;20658;-81
2021/03/03 07:07:31;;;;;;;38.63;19.07;;;;;;;-144.99;100.00;52350.25;4998380;28;20650;-85
2021/03/03 07:09:59;;;;;;;26.03;19.07;;;;;;;-144.99;100.00;52366.56;4999164;28;20706;-79
2021/03/03 07:12:29;;;;;;;29.20;17.53;;;;;;;-144.99;100.00;52358.41;4983992;28;20636;-78
2021/03/03 07:14:57;;;;;;;30.93;19.30;;;;;;;-144.99;100.00;52358.41;4971456;28;20683;-79
2021/03/03 07:17:34;;;;;;;29.70;17.10;;;;;;;-144.99;100.00;52325.81;4994436;28;20642;-81
2021/03/03 07:20:04;;;;;;;32.50;21.13;;;;;;;-144.99;100.00;52366.56;4998955;28;20607;-80
2021/03/03 07:22:33;;;;;;;31.33;20.10;;;;;;;-144.99;100.00;52366.56;4996208;28;20632;-79
2021/03/03 07:25:06;;;;;;;33.43;20.00;;;;;;;-144.99;100.00;52374.72;5013298;28;20685;-80
2021/03/03 07:27:33;;;;;;;32.87;20.43;;;;;;;-144.99;100.00;52350.25;5006747;28;20688;-78
2021/03/03 07:30:01;;;;;;;34.53;21.77;;;;;;;-144.99;100.00;52342.09;4993573;28;20594;-80
2021/03/03 07:32:30;;;;;;;33.27;20.23;;;;;;;-144.99;100.00;52321.72;4995749;28;20635;-78
2021/03/03 07:35:01;;;;;;;29.93;18.53;;;;;;;-144.99;100.00;52317.66;4980138;28;20657;-79
2021/03/03 07:37:34;;;;;;;36.43;21.00;;;;;;;-144.99;100.00;52321.72;4646853;28;10000052;-75
2021/03/03 07:40:03;;;;;;;29.17;20.33;;;;;;;-144.99;100.00;52350.25;4991728;28;20662;-78
2021/03/03 07:42:32;;;;;;;34.07;20.27;;;;;;;-144.99;100.00;52354.34;4992449;28;20626;-73
2021/03/03 07:45:00;;;;;;;28.23;19.67;;;;;;;-144.99;100.00;52319.69;4976792;28;20638;-78
2021/03/03 07:47:29;;;;;;;30.27;19.87;;;;;;;-144.99;99.85;52321.72;4990144;28;20705;-80
2021/03/03 07:49:59;;;;;;;25.77;19.23;;;;;;;-144.99;99.74;52278.91;4994482;28;20693;-79
2021/03/03 07:52:26;;;;;;;31.07;18.67;;;;;;;-144.99;98.55;52338.03;4994910;28;20651;-78
2021/03/03 07:54:53;;;;;;;28.53;19.77;;;;;;;-144.99;97.25;52317.66;4993888;28;20678;-80
2021/03/03 07:57:20;;;;;;;23.73;17.80;;;;;;;-144.99;96.81;52329.88;4994161;28;20623;-78
2021/03/03 07:59:47;;;;;;;32.83;24.40;;;;;;;-144.99;96.03;52333.94;5015720;28;20641;-78
2021/03/03 08:02:13;;;;;;;42.60;20.83;;;;;;;-144.99;95.14;52305.41;5010478;28;20665;-81
2021/03/03 08:04:43;;;;;;;28.40;19.00;;;;;;;-144.99;94.12;52350.25;5008789;28;20670;-80
2021/03/03 08:07:19;;;;;;;31.83;20.60;;;;;;;-144.99;92.47;52317.66;4996733;28;20627;-80
2021/03/03 08:10:21;;;;;;;24.17;17.73;;;;;;;-144.99;92.34;52297.25;5004486;28;20705;-81
2021/03/03 08:12:57;;;;;;;27.73;16.90;;;;;;;-144.99;92.11;52285.03;4993888;28;21188;-80
2021/03/03 08:15:33;;;;;;;41.23;20.87;;;;;;;-144.99;91.72;52338.03;5009515;28;20658;-81
2021/03/03 08:18:20;;;;;;;31.83;21.00;;;;;;;-144.99;91.16;52350.25;4996536;28;20618;-75
2021/03/03 08:20:49;;;;;;;31.33;22.90;;;;;;;-144.99;89.81;52280.97;4996588;28;20630;-77
2021/03/03 08:23:40;;;;;;;31.63;21.47;;;;;;;-144.99;87.86;52309.50;4999364;28;21214;-80
2021/03/03 08:26:11;;;;;;;31.20;20.90;;;;;;;-144.99;87.54;52280.97;4998002;28;20614;-79
2021/03/03 08:28:38;;;;;;;30.50;20.87;;;;;;;-144.99;87.92;52325.81;4998076;28;20673;-78
2021/03/03 08:31:30;;;;;;;26.37;18.97;;;;;;;-144.99;87.01;52325.81;4997384;28;20226;-77
2021/03/03 08:34:01;;;;;;;29.30;20.60;;;;;;;-144.99;86.53;52272.81;4986673;28;20650;-78
2021/03/03 08:36:58;;;;;;;33.40;21.17;;;;;;;-144.99;86.23;52272.81;4994657;28;20753;-78
2021/03/03 08:39:32;;;;;;;28.20;17.57;;;;;;;-144.99;85.43;52272.81;4996117;28;20207;-78
2021/03/03 08:41:59;;;;;;;23.63;17.83;;;;;;;-144.99;84.16;52313.56;5008219;28;20205;-80
2021/03/03 08:44:26;;;;;;;26.83;19.07;;;;;;;-144.99;83.49;52311.53;5002431;28;21238;-78
2021/03/03 08:46:53;;;;;;;31.20;21.10;;;;;;;-144.99;82.57;52285.03;4994245;28;20235;-76
2021/03/03 08:49:31;;;;;;;24.47;19.33;;;;;;;-144.99;81.23;52280.97;4996380;28;20210;-79
2021/03/03 08:52:12;;;;;;;26.47;17.07;;;;;;;-144.99;81.73;52258.53;4999243;28;20217;-80
2021/03/03 08:54:43;;;;;;;26.27;15.57;;;;;;;-144.99;80.24;52276.88;5016096;28;20223;-78
2021/03/03 08:57:37;;;;;;;26.03;16.53;;;;;;;-144.99;79.74;52313.56;5000456;28;20204;-80
2021/03/03 09:00:07;;;;;;;24.60;18.13;;;;;;;-144.99;78.11;52256.50;4996705;28;20783;-78
2021/03/03 09:02:38;;;;;;;25.00;17.73;;;;;;;-144.99;77.89;52297.25;5004730;28;20203;-78
2021/03/03 09:05:13;;;;;;;27.20;19.47;;;;;;;-144.99;77.37;52291.16;5006927;28;20225;-79
2021/03/03 09:07:41;;;;;;;23.03;17.20;;;;;;;-144.99;76.41;52244.28;4993929;28;20246;-81
2021/03/03 09:10:15;;;;;;;24.87;16.40;;;;;;;-144.99;74.46;52244.28;4986629;28;20270;-79
2021/03/03 09:12:43;;;;;;;25.47;17.97;;;;;;;-144.99;73.49;52244.28;4993592;28;20204;-78
2021/03/03 09:15:12;;;;;;;22.27;17.67;;;;;;;-144.99;72.17;52244.28;5008595;28;20271;-80
2021/03/03 09:17:39;;;;;;;26.47;17.73;;;;;;;-144.99;71.46;52240.19;5010542;28;20242;-80
2021/03/03 09:20:09;;;;;;;22.50;16.87;;;;;;;-144.99;70.10;52250.38;5008316;28;20216;-81
2021/03/03 09:22:38;;;;;;;27.13;17.70;;;;;;;-144.99;69.14;52256.50;5006766;28;20246;-83
2021/03/03 09:25:22;;;;;;;34.60;17.00;;;;;;;-144.99;68.33;52260.56;5003304;28;20223;-80
2021/03/03 09:27:52;;;;;;;26.83;17.97;;;;;;;-144.99;66.86;52223.88;5018354;28;20214;-81
2021/03/03 09:30:20;;;;;;;23.90;16.40;;;;;;;-144.99;66.41;52272.81;5009821;28;20206;-78
2021/03/03 09:32:47;;;;;;;26.63;19.20;;;;;;;-144.99;65.04;52234.09;4988045;28;20200;-78
2021/03/03 09:35:18;;;;;;;21.50;18.27;;;;;;;-144.99;63.91;52248.34;5002702;28;20290;-81
2021/03/03 09:37:46;;;;;;;21.57;16.27;;;;;;;-144.99;63.58;52244.28;5009432;28;20199;-83
2021/03/03 09:40:15;;;;;;;22.20;17.27;;;;;;;-144.99;63.48;52240.19;5005183;28;20196;-82
2021/03/03 09:42:44;;;;;;;25.03;15.30;;;;;;;-144.99;63.48;52191.28;5009512;28;20613;-82
2021/03/03 09:45:12;;;;;;;23.17;16.77;;;;;;;-144.99;61.22;52240.19;5002680;28;20204;-83
2021/03/03 09:47:40;;;;;;;28.37;17.93;;;;;;;-144.99;59.24;52225.94;4994541;28;20211;-80
2021/03/03 09:50:09;;;;;;;20.73;17.97;;;;;;;-144.99;58.04;52203.50;4997258;28;20196;-80
2021/03/03 09:52:38;;;;;;;27.77;17.27;;;;;;;-144.99;57.19;52236.13;4999537;28;20208;-80
2021/03/03 09:55:08;;;;;;;20.27;17.03;;;;;;;-144.99;56.24;52191.28;4996674;28;20311;-79
2021/03/03 09:57:36;;;;;;;20.13;15.93;;;;;;;-144.99;55.37;52238.16;4999190;28;20270;-80
2021/03/03 10:00:12;;;;;;;24.00;16.53;;;;;;;-144.99;53.18;52252.44;4997044;28;20199;-80
2021/03/03 10:02:47;;;;;;;20.93;14.07;;;;;;;-144.99;52.50;52227.97;4999873;28;20253;-79
2021/03/03 10:05:17;;;;;;;22.00;15.40;;;;;;;-144.99;51.66;52232.03;4988806;28;20229;-79
2021/03/03 10:07:49;;;;;;;20.20;16.60;;;;;;;-144.99;51.03;52203.50;4996149;28;20303;-80
2021/03/03 10:10:17;;;;;;;24.70;17.70;;;;;;;-144.99;49.58;52183.13;4995181;28;20684;-81
2021/03/03 10:12:44;;;;;;;22.37;16.70;;;;;;;-144.99;48.68;52191.28;4995767;28;20384;-79
2021/03/03 10:15:12;;;;;;;19.83;15.70;;;;;;;-144.99;47.98;52187.19;5005117;28;20235;-79
2021/03/03 10:17:42;;;;;;;22.13;16.03;;;;;;;-144.99;47.13;52185.16;5003148;28;20210;-79
2021/03/03 10:20:27;;;;;;;24.90;15.63;;;;;;;-144.99;46.84;52179.06;4996769;28;20206;-80
2021/03/03 10:22:54;;;;;;;21.13;16.83;;;;;;;-144.99;45.91;52170.91;4999911;28;20194;-79
2021/03/03 10:25:29;;;;;;;21.83;15.40;;;;;;;-144.99;44.86;52183.13;4998523;28;20322;-80
2021/03/03 10:28:02;;;;;;;22.17;15.53;;;;;;;-144.99;44.08;52158.66;4995081;28;20207;-79
2021/03/03 10:30:31;;;;;;;20.97;16.43;;;;;;;-144.99;43.31;52146.44;4993878;28;20204;-76
2021/03/03 10:32:58;;;;;;;20.93;15.27;;;;;;;-144.99;42.81;52191.28;4999335;28;20291;-77
2021/03/03 10:35:26;;;;;;;31.63;20.90;;;;;;;-144.99;42.57;52162.75;4996187;28;20306;-78
2021/03/03 10:37:54;;;;;;;23.13;15.87;;;;;;;-144.99;42.97;52136.25;4994227;28;20306;-81
2021/03/03 10:40:21;;;;;;;19.67;15.67;;;;;;;-144.99;42.66;52128.09;4997721;28;20250;-79
2021/03/03 10:42:48;;;;;;;21.73;17.00;;;;;;;-144.99;42.01;52162.75;4994598;28;20211;-79
2021/03/03 10:45:21;;;;;;;25.50;17.47;;;;;;;-144.99;41.49;52121.97;4996359;28;20239;-79
2021/03/03 10:50:30;;;;;;;21.77;16.83;;;;;;;-144.99;41.12;52109.75;4994087;28;20204;-79
2021/03/03 10:53:01;;;;;;;22.03;16.73;;;;;;;-144.99;41.64;52089.38;4991192;28;20724;-79
2021/03/03 10:58:38;;;;;;;24.00;17.33;;;;;;;-144.99;41.34;52048.63;4964506;28;20211;-79
2021/03/03 11:01:07;;;;;;;25.33;17.97;;;;;;;-144.99;40.29;52040.47;4992684;28;20741;-80
2021/03/03 11:03:50;;;;;;;25.80;17.03;;;;;;;-144.99;39.41;52038.44;4997852;28;20349;-78
2021/03/03 11:06:16;;;;;;;27.33;18.00;;;;;;;-144.99;40.56;52089.38;4996075;28;20204;-80
2021/03/03 11:08:42;;;;;;;23.13;16.67;;;;;;;-144.99;40.16;52073.06;4996118;28;20279;-77
2021/03/03 11:11:10;;;;;;;23.37;17.87;;;;;;;-144.99;40.67;52044.53;4999967;28;20243;-79